sensor_id;sensor_type;location;lat;lon;timestamp;temperature;humidity
62464;SHT31;48512;48.552;9.380;2023-07-20T00:02:03;22.15;54.88
62464;SHT31;48512;48.552;9.380;2023-07-20T00:04:31;22.15;54.90
62464;SHT31;48512;48.552;9.380;2023-07-20T00:06:58;22.06;55.29
62464;SHT31;48512;48.552;9.380;2023-07-20T00:09:26;22.01;55.28
62464;SHT31;48512;48.552;9.380;2023-07-20T00:11:53;22.12;54.79
62464;SHT31;48512;48.552;9.380;2023-07-20T00:14:20;21.98;55.24
62464;SHT31;48512;48.552;9.380;2023-07-20T00:16:46;21.79;55.26
62464;SHT31;48512;48.552;9.380;2023-07-20T00:19:13;21.82;55.63
62464;SHT31;48512;48.552;9.380;2023-07-20T00:21:39;21.87;55.32
62464;SHT31;48512;48.552;9.380;2023-07-20T00:24:06;21.85;55.07
62464;SHT31;48512;48.552;9.380;2023-07-20T00:26:32;21.94;54.23
62464;SHT31;48512;48.552;9.380;2023-07-20T00:28:59;21.95;54.33
62464;SHT31;48512;48.552;9.380;2023-07-20T00:31:25;21.68;55.50
62464;SHT31;48512;48.552;9.380;2023-07-20T00:33:52;21.78;55.05
62464;SHT31;48512;48.552;9.380;2023-07-20T00:36:19;21.67;54.90
62464;SHT31;48512;48.552;9.380;2023-07-20T00:38:45;21.67;54.79
62464;SHT31;48512;48.552;9.380;2023-07-20T00:41:11;21.51;54.63
62464;SHT31;48512;48.552;9.380;2023-07-20T00:43:40;21.49;54.61
62464;SHT31;48512;48.552;9.380;2023-07-20T00:46:07;21.55;54.01
62464;SHT31;48512;48.552;9.380;2023-07-20T00:48:34;21.60;53.49
62464;SHT31;48512;48.552;9.380;2023-07-20T00:51:00;21.46;53.61
62464;SHT31;48512;48.552;9.380;2023-07-20T00:53:28;21.41;53.24
62464;SHT31;48512;48.552;9.380;2023-07-20T00:55:54;21.60;52.73
62464;SHT31;48512;48.552;9.380;2023-07-20T00:58:21;21.49;52.76
62464;SHT31;48512;48.552;9.380;2023-07-20T01:00:47;21.53;52.48
62464;SHT31;48512;48.552;9.380;2023-07-20T01:03:13;21.53;53.16
62464;SHT31;48512;48.552;9.380;2023-07-20T01:08:17;21.49;53.43
62464;SHT31;48512;48.552;9.380;2023-07-20T01:10:51;21.51;52.65
62464;SHT31;48512;48.552;9.380;2023-07-20T01:13:18;21.36;52.87
62464;SHT31;48512;48.552;9.380;2023-07-20T01:15:49;21.33;52.34
62464;SHT31;48512;48.552;9.380;2023-07-20T01:18:17;21.22;53.23
62464;SHT31;48512;48.552;9.380;2023-07-20T01:20:44;21.33;52.90
62464;SHT31;48512;48.552;9.380;2023-07-20T01:29:05;21.24;52.57
62464;SHT31;48512;48.552;9.380;2023-07-20T01:31:21;21.24;52.86
62464;SHT31;48512;48.552;9.380;2023-07-20T01:33:54;21.18;53.29
62464;SHT31;48512;48.552;9.380;2023-07-20T01:36:23;21.19;53.83
62464;SHT31;48512;48.552;9.380;2023-07-20T01:38:51;21.13;53.68
62464;SHT31;48512;48.552;9.380;2023-07-20T01:41:18;21.10;53.43
62464;SHT31;48512;48.552;9.380;2023-07-20T01:43:45;21.05;53.72
62464;SHT31;48512;48.552;9.380;2023-07-20T01:46:12;21.03;53.73
62464;SHT31;48512;48.552;9.380;2023-07-20T01:48:38;21.05;54.26
62464;SHT31;48512;48.552;9.380;2023-07-20T01:51:04;20.96;53.99
62464;SHT31;48512;48.552;9.380;2023-07-20T01:53:30;20.99;54.23
62464;SHT31;48512;48.552;9.380;2023-07-20T01:55:57;20.95;54.88
62464;SHT31;48512;48.552;9.380;2023-07-20T01:58:24;20.99;55.15
62464;SHT31;48512;48.552;9.380;2023-07-20T02:00:50;20.98;55.33
62464;SHT31;48512;48.552;9.380;2023-07-20T02:03:17;21.09;55.09
62464;SHT31;48512;48.552;9.380;2023-07-20T02:05:43;21.05;55.51
62464;SHT31;48512;48.552;9.380;2023-07-20T02:08:09;20.95;55.76
62464;SHT31;48512;48.552;9.380;2023-07-20T02:10:36;20.85;56.51
62464;SHT31;48512;48.552;9.380;2023-07-20T02:13:02;20.91;56.25
62464;SHT31;48512;48.552;9.380;2023-07-20T02:15:28;20.88;56.14
62464;SHT31;48512;48.552;9.380;2023-07-20T02:17:54;20.82;55.94
62464;SHT31;48512;48.552;9.380;2023-07-20T02:20:20;20.86;55.43
62464;SHT31;48512;48.552;9.380;2023-07-20T02:22:47;20.75;55.39
62464;SHT31;48512;48.552;9.380;2023-07-20T02:25:13;20.78;55.86
62464;SHT31;48512;48.552;9.380;2023-07-20T02:27:40;20.69;55.70
62464;SHT31;48512;48.552;9.380;2023-07-20T02:30:07;20.61;56.22
62464;SHT31;48512;48.552;9.380;2023-07-20T02:32:36;20.69;56.11
62464;SHT31;48512;48.552;9.380;2023-07-20T02:35:03;20.65;55.62
62464;SHT31;48512;48.552;9.380;2023-07-20T02:37:29;20.59;56.12
62464;SHT31;48512;48.552;9.380;2023-07-20T02:39:58;20.57;56.40
62464;SHT31;48512;48.552;9.380;2023-07-20T02:42:24;20.54;56.34
62464;SHT31;48512;48.552;9.380;2023-07-20T02:44:52;20.37;56.57
62464;SHT31;48512;48.552;9.380;2023-07-20T02:47:18;20.45;55.96
62464;SHT31;48512;48.552;9.380;2023-07-20T02:49:44;20.44;55.71
62464;SHT31;48512;48.552;9.380;2023-07-20T02:52:11;20.43;55.63
62464;SHT31;48512;48.552;9.380;2023-07-20T02:54:37;20.43;55.55
62464;SHT31;48512;48.552;9.380;2023-07-20T02:57:03;20.40;55.67
62464;SHT31;48512;48.552;9.380;2023-07-20T02:59:29;20.38;55.91
62464;SHT31;48512;48.552;9.380;2023-07-20T03:01:55;20.36;55.97
62464;SHT31;48512;48.552;9.380;2023-07-20T03:04:25;20.41;55.86
62464;SHT31;48512;48.552;9.380;2023-07-20T03:06:52;20.27;56.00
62464;SHT31;48512;48.552;9.380;2023-07-20T03:09:18;20.30;56.19
62464;SHT31;48512;48.552;9.380;2023-07-20T03:11:44;20.36;55.73
62464;SHT31;48512;48.552;9.380;2023-07-20T03:14:11;20.21;55.90
62464;SHT31;48512;48.552;9.380;2023-07-20T03:16:39;20.27;56.19
62464;SHT31;48512;48.552;9.380;2023-07-20T03:19:05;20.27;55.36
62464;SHT31;48512;48.552;9.380;2023-07-20T03:21:31;20.24;55.56
62464;SHT31;48512;48.552;9.380;2023-07-20T03:23:59;20.27;55.78
62464;SHT31;48512;48.552;9.380;2023-07-20T03:26:28;20.23;56.00
62464;SHT31;48512;48.552;9.380;2023-07-20T03:28:54;20.12;56.71
62464;SHT31;48512;48.552;9.380;2023-07-20T03:31:21;20.05;56.76
62464;SHT31;48512;48.552;9.380;2023-07-20T03:33:47;19.96;56.97
62464;SHT31;48512;48.552;9.380;2023-07-20T03:36:14;19.89;57.55
62464;SHT31;48512;48.552;9.380;2023-07-20T03:38:40;19.92;57.88
62464;SHT31;48512;48.552;9.380;2023-07-20T03:41:06;19.96;57.71
62464;SHT31;48512;48.552;9.380;2023-07-20T03:43:33;19.99;56.98
62464;SHT31;48512;48.552;9.380;2023-07-20T03:45:59;20.09;56.83
62464;SHT31;48512;48.552;9.380;2023-07-20T03:48:26;19.90;57.49
62464;SHT31;48512;48.552;9.380;2023-07-20T03:50:53;19.82;58.26
62464;SHT31;48512;48.552;9.380;2023-07-20T03:53:20;19.72;58.18
62464;SHT31;48512;48.552;9.380;2023-07-20T03:55:50;19.68;58.38
62464;SHT31;48512;48.552;9.380;2023-07-20T03:58:18;19.63;58.91
62464;SHT31;48512;48.552;9.380;2023-07-20T04:00:51;19.63;58.34
62464;SHT31;48512;48.552;9.380;2023-07-20T04:03:21;19.68;58.37
62464;SHT31;48512;48.552;9.380;2023-07-20T04:05:48;19.59;58.99
62464;SHT31;48512;48.552;9.380;2023-07-20T04:08:14;19.61;59.42
62464;SHT31;48512;48.552;9.380;2023-07-20T04:10:44;19.55;59.23
62464;SHT31;48512;48.552;9.380;2023-07-20T04:13:11;19.32;59.76
62464;SHT31;48512;48.552;9.380;2023-07-20T04:15:37;19.30;59.79
62464;SHT31;48512;48.552;9.380;2023-07-20T04:18:03;19.28;59.45
62464;SHT31;48512;48.552;9.380;2023-07-20T04:20:30;18.94;61.92
62464;SHT31;48512;48.552;9.380;2023-07-20T04:22:56;18.65;63.07
62464;SHT31;48512;48.552;9.380;2023-07-20T04:25:23;18.34;64.24
62464;SHT31;48512;48.552;9.380;2023-07-20T04:27:49;18.12;65.08
62464;SHT31;48512;48.552;9.380;2023-07-20T04:30:18;17.90;66.07
62464;SHT31;48512;48.552;9.380;2023-07-20T04:32:49;17.86;66.52
62464;SHT31;48512;48.552;9.380;2023-07-20T04:35:48;17.77;66.64
62464;SHT31;48512;48.552;9.380;2023-07-20T04:38:18;17.74;66.98
62464;SHT31;48512;48.552;9.380;2023-07-20T04:40:47;17.73;67.04
62464;SHT31;48512;48.552;9.380;2023-07-20T04:43:14;17.74;66.99
62464;SHT31;48512;48.552;9.380;2023-07-20T04:45:41;17.69;67.15
62464;SHT31;48512;48.552;9.380;2023-07-20T04:48:09;17.74;67.31
62464;SHT31;48512;48.552;9.380;2023-07-20T04:50:41;17.86;67.39
62464;SHT31;48512;48.552;9.380;2023-07-20T04:53:09;17.96;66.87
62464;SHT31;48512;48.552;9.380;2023-07-20T04:55:37;17.98;66.80
62464;SHT31;48512;48.552;9.380;2023-07-20T04:58:04;17.98;66.92
62464;SHT31;48512;48.552;9.380;2023-07-20T05:00:32;18.02;66.97
62464;SHT31;48512;48.552;9.380;2023-07-20T05:02:59;18.05;67.20
62464;SHT31;48512;48.552;9.380;2023-07-20T05:05:25;18.18;67.17
62464;SHT31;48512;48.552;9.380;2023-07-20T05:07:51;18.24;66.68
62464;SHT31;48512;48.552;9.380;2023-07-20T05:10:18;18.45;69.17
62464;SHT31;48512;48.552;9.380;2023-07-20T05:12:44;18.49;65.95
62464;SHT31;48512;48.552;9.380;2023-07-20T05:15:10;18.35;66.07
62464;SHT31;48512;48.552;9.380;2023-07-20T05:17:39;18.25;65.42
62464;SHT31;48512;48.552;9.380;2023-07-20T05:20:06;18.37;65.21
62464;SHT31;48512;48.552;9.380;2023-07-20T05:22:33;18.34;65.31
62464;SHT31;48512;48.552;9.380;2023-07-20T05:24:59;18.34;64.68
62464;SHT31;48512;48.552;9.380;2023-07-20T05:27:25;18.35;64.72
62464;SHT31;48512;48.552;9.380;2023-07-20T05:29:51;18.34;64.82
62464;SHT31;48512;48.552;9.380;2023-07-20T05:32:18;18.41;65.20
62464;SHT31;48512;48.552;9.380;2023-07-20T05:34:44;18.59;64.02
62464;SHT31;48512;48.552;9.380;2023-07-20T05:37:10;18.75;64.12
62464;SHT31;48512;48.552;9.380;2023-07-20T05:39:36;18.79;63.47
62464;SHT31;48512;48.552;9.380;2023-07-20T05:42:03;18.85;63.57
62464;SHT31;48512;48.552;9.380;2023-07-20T05:44:29;18.93;63.10
62464;SHT31;48512;48.552;9.380;2023-07-20T05:46:55;18.99;63.14
62464;SHT31;48512;48.552;9.380;2023-07-20T05:49:22;19.07;63.41
62464;SHT31;48512;48.552;9.380;2023-07-20T05:51:48;19.11;64.37
62464;SHT31;48512;48.552;9.380;2023-07-20T05:54:14;19.11;61.85
62464;SHT31;48512;48.552;9.380;2023-07-20T05:56:40;19.18;62.64
62464;SHT31;48512;48.552;9.380;2023-07-20T05:59:07;19.23;61.69
62464;SHT31;48512;48.552;9.380;2023-07-20T06:01:33;19.36;61.59
62464;SHT31;48512;48.552;9.380;2023-07-20T06:03:59;19.58;60.56
62464;SHT31;48512;48.552;9.380;2023-07-20T06:06:25;19.57;60.91
62464;SHT31;48512;48.552;9.380;2023-07-20T06:08:52;19.75;61.19
62464;SHT31;48512;48.552;9.380;2023-07-20T06:11:18;19.82;60.11
62464;SHT31;48512;48.552;9.380;2023-07-20T06:13:44;20.05;59.20
62464;SHT31;48512;48.552;9.380;2023-07-20T06:16:10;19.89;60.01
62464;SHT31;48512;48.552;9.380;2023-07-20T06:18:36;19.97;60.15
62464;SHT31;48512;48.552;9.380;2023-07-20T06:21:02;19.97;60.52
62464;SHT31;48512;48.552;9.380;2023-07-20T06:23:29;20.03;61.35
62464;SHT31;48512;48.552;9.380;2023-07-20T06:25:55;20.05;61.92
62464;SHT31;48512;48.552;9.380;2023-07-20T06:28:21;20.34;59.49
62464;SHT31;48512;48.552;9.380;2023-07-20T06:30:47;20.23;59.68
62464;SHT31;48512;48.552;9.380;2023-07-20T06:33:13;20.10;59.68
62464;SHT31;48512;48.552;9.380;2023-07-20T06:35:41;20.28;59.95
62464;SHT31;48512;48.552;9.380;2023-07-20T06:38:09;20.51;59.16
62464;SHT31;48512;48.552;9.380;2023-07-20T06:40:35;20.48;59.70
62464;SHT31;48512;48.552;9.380;2023-07-20T06:43:01;20.75;58.59
62464;SHT31;48512;48.552;9.380;2023-07-20T06:45:27;20.63;59.59
62464;SHT31;48512;48.552;9.380;2023-07-20T06:47:53;20.78;57.90
62464;SHT31;48512;48.552;9.380;2023-07-20T06:50:19;20.63;58.38
62464;SHT31;48512;48.552;9.380;2023-07-20T06:52:45;20.71;59.11
62464;SHT31;48512;48.552;9.380;2023-07-20T06:55:13;20.74;58.50
62464;SHT31;48512;48.552;9.380;2023-07-20T06:57:40;20.75;58.87
62464;SHT31;48512;48.552;9.380;2023-07-20T07:00:07;21.12;57.81
62464;SHT31;48512;48.552;9.380;2023-07-20T07:02:33;20.88;58.32
62464;SHT31;48512;48.552;9.380;2023-07-20T07:05:00;20.84;58.59
62464;SHT31;48512;48.552;9.380;2023-07-20T07:07:27;21.07;57.17
62464;SHT31;48512;48.552;9.380;2023-07-20T07:09:53;21.00;58.38
62464;SHT31;48512;48.552;9.380;2023-07-20T07:12:19;21.05;58.87
62464;SHT31;48512;48.552;9.380;2023-07-20T07:14:45;21.10;58.23
62464;SHT31;48512;48.552;9.380;2023-07-20T07:17:12;21.18;57.64
62464;SHT31;48512;48.552;9.380;2023-07-20T07:19:38;21.27;57.39
62464;SHT31;48512;48.552;9.380;2023-07-20T07:22:04;21.31;57.14
62464;SHT31;48512;48.552;9.380;2023-07-20T07:24:30;21.33;57.65
62464;SHT31;48512;48.552;9.380;2023-07-20T07:27:00;21.41;57.19
62464;SHT31;48512;48.552;9.380;2023-07-20T07:29:27;21.54;57.06
62464;SHT31;48512;48.552;9.380;2023-07-20T07:31:53;21.60;57.00
62464;SHT31;48512;48.552;9.380;2023-07-20T07:34:19;21.65;56.19
62464;SHT31;48512;48.552;9.380;2023-07-20T07:36:46;21.33;56.70
62464;SHT31;48512;48.552;9.380;2023-07-20T07:39:13;21.22;57.43
62464;SHT31;48512;48.552;9.380;2023-07-20T07:41:39;21.23;57.63
62464;SHT31;48512;48.552;9.380;2023-07-20T07:44:05;21.20;57.68
62464;SHT31;48512;48.552;9.380;2023-07-20T07:46:32;21.34;57.90
62464;SHT31;48512;48.552;9.380;2023-07-20T07:48:58;21.58;56.91
62464;SHT31;48512;48.552;9.380;2023-07-20T07:51:24;21.49;56.44
62464;SHT31;48512;48.552;9.380;2023-07-20T07:53:51;21.71;55.66
62464;SHT31;48512;48.552;9.380;2023-07-20T07:56:17;21.49;57.42
62464;SHT31;48512;48.552;9.380;2023-07-20T07:58:43;21.40;58.57
62464;SHT31;48512;48.552;9.380;2023-07-20T08:01:09;21.67;57.23
62464;SHT31;48512;48.552;9.380;2023-07-20T08:03:35;21.88;55.80
62464;SHT31;48512;48.552;9.380;2023-07-20T08:06:02;21.65;55.31
62464;SHT31;48512;48.552;9.380;2023-07-20T08:08:31;21.53;56.70
62464;SHT31;48512;48.552;9.380;2023-07-20T08:10:58;21.58;57.94
62464;SHT31;48512;48.552;9.380;2023-07-20T08:13:24;21.71;58.06
62464;SHT31;48512;48.552;9.380;2023-07-20T08:15:51;21.85;54.71
62464;SHT31;48512;48.552;9.380;2023-07-20T08:18:20;21.87;55.54
62464;SHT31;48512;48.552;9.380;2023-07-20T08:20:47;21.85;56.31
62464;SHT31;48512;48.552;9.380;2023-07-20T08:23:13;21.85;54.59
62464;SHT31;48512;48.552;9.380;2023-07-20T08:25:39;22.04;55.78
62464;SHT31;48512;48.552;9.380;2023-07-20T08:28:10;22.01;55.60
62464;SHT31;48512;48.552;9.380;2023-07-20T08:30:44;22.10;56.55
62464;SHT31;48512;48.552;9.380;2023-07-20T08:33:13;22.20;54.51
62464;SHT31;48512;48.552;9.380;2023-07-20T08:35:40;22.40;52.78
62464;SHT31;48512;48.552;9.380;2023-07-20T08:38:06;22.59;52.04
62464;SHT31;48512;48.552;9.380;2023-07-20T08:40:38;22.45;52.36
62464;SHT31;48512;48.552;9.380;2023-07-20T08:43:05;22.35;54.82
62464;SHT31;48512;48.552;9.380;2023-07-20T08:45:33;22.46;55.05
62464;SHT31;48512;48.552;9.380;2023-07-20T08:48:01;22.47;54.63
62464;SHT31;48512;48.552;9.380;2023-07-20T08:50:30;22.61;53.50
62464;SHT31;48512;48.552;9.380;2023-07-20T08:52:58;22.87;54.26
62464;SHT31;48512;48.552;9.380;2023-07-20T08:55:28;23.01;52.14
62464;SHT31;48512;48.552;9.380;2023-07-20T08:57:56;23.07;53.40
62464;SHT31;48512;48.552;9.380;2023-07-20T09:00:24;23.08;53.75
62464;SHT31;48512;48.552;9.380;2023-07-20T09:02:52;23.39;51.49
62464;SHT31;48512;48.552;9.380;2023-07-20T09:05:20;23.62;50.37
62464;SHT31;48512;48.552;9.380;2023-07-20T09:07:46;23.56;50.07
62464;SHT31;48512;48.552;9.380;2023-07-20T09:10:12;23.81;49.81
62464;SHT31;48512;48.552;9.380;2023-07-20T09:12:40;23.81;48.62
62464;SHT31;48512;48.552;9.380;2023-07-20T09:15:08;23.90;49.32
62464;SHT31;48512;48.552;9.380;2023-07-20T09:17:35;24.15;50.73
62464;SHT31;48512;48.552;9.380;2023-07-20T09:20:05;24.34;49.35
62464;SHT31;48512;48.552;9.380;2023-07-20T09:22:37;24.56;47.79
62464;SHT31;48512;48.552;9.380;2023-07-20T09:25:11;24.42;47.44
62464;SHT31;48512;48.552;9.380;2023-07-20T09:27:38;24.66;47.23
62464;SHT31;48512;48.552;9.380;2023-07-20T09:30:05;24.79;47.20
62464;SHT31;48512;48.552;9.380;2023-07-20T09:35:19;25.47;47.56
62464;SHT31;48512;48.552;9.380;2023-07-20T09:37:50;25.68;46.00
62464;SHT31;48512;48.552;9.380;2023-07-20T09:40:20;25.62;47.59
62464;SHT31;48512;48.552;9.380;2023-07-20T09:42:47;25.96;45.91
62464;SHT31;48512;48.552;9.380;2023-07-20T09:45:14;25.95;46.47
62464;SHT31;48512;48.552;9.380;2023-07-20T09:47:40;25.99;44.65
62464;SHT31;48512;48.552;9.380;2023-07-20T09:50:08;26.23;44.66
62464;SHT31;48512;48.552;9.380;2023-07-20T09:52:41;26.48;43.08
62464;SHT31;48512;48.552;9.380;2023-07-20T09:55:10;26.48;40.46
62464;SHT31;48512;48.552;9.380;2023-07-20T09:57:38;26.00;43.46
62464;SHT31;48512;48.552;9.380;2023-07-20T10:00:06;26.43;43.42
62464;SHT31;48512;48.552;9.380;2023-07-20T10:02:41;26.23;41.92
62464;SHT31;48512;48.552;9.380;2023-07-20T10:05:11;25.88;42.28
62464;SHT31;48512;48.552;9.380;2023-07-20T10:07:48;26.04;42.54
62464;SHT31;48512;48.552;9.380;2023-07-20T10:10:16;26.37;43.17
62464;SHT31;48512;48.552;9.380;2023-07-20T10:12:48;26.96;42.79
62464;SHT31;48512;48.552;9.380;2023-07-20T10:15:23;27.17;41.49
62464;SHT31;48512;48.552;9.380;2023-07-20T10:20:54;27.03;40.73
62464;SHT31;48512;48.552;9.380;2023-07-20T10:23:22;26.85;41.72
62464;SHT31;48512;48.552;9.380;2023-07-20T10:25:50;27.25;41.64
62464;SHT31;48512;48.552;9.380;2023-07-20T10:28:16;27.53;42.67
62464;SHT31;48512;48.552;9.380;2023-07-20T10:30:43;27.68;41.96
62464;SHT31;48512;48.552;9.380;2023-07-20T10:33:09;27.43;41.55
62464;SHT31;48512;48.552;9.380;2023-07-20T10:38:18;26.82;41.54
62464;SHT31;48512;48.552;9.380;2023-07-20T10:40:54;27.44;40.96
62464;SHT31;48512;48.552;9.380;2023-07-20T10:43:20;27.98;40.03
62464;SHT31;48512;48.552;9.380;2023-07-20T10:48:22;28.46;38.14
62464;SHT31;48512;48.552;9.380;2023-07-20T10:53:36;28.77;39.01
62464;SHT31;48512;48.552;9.380;2023-07-20T10:56:08;28.04;40.32
62464;SHT31;48512;48.552;9.380;2023-07-20T10:58:34;27.76;40.28
62464;SHT31;48512;48.552;9.380;2023-07-20T11:01:02;27.78;40.99
62464;SHT31;48512;48.552;9.380;2023-07-20T11:05:59;28.73;38.66
62464;SHT31;48512;48.552;9.380;2023-07-20T11:08:43;29.26;37.87
62464;SHT31;48512;48.552;9.380;2023-07-20T11:11:25;28.46;38.52
62464;SHT31;48512;48.552;9.380;2023-07-20T11:13:59;29.01;37.15
62464;SHT31;48512;48.552;9.380;2023-07-20T11:16:43;29.00;36.97
62464;SHT31;48512;48.552;9.380;2023-07-20T11:19:23;28.12;36.88
62464;SHT31;48512;48.552;9.380;2023-07-20T11:24:17;29.08;36.24
62464;SHT31;48512;48.552;9.380;2023-07-20T11:29:11;30.04;33.76
62464;SHT31;48512;48.552;9.380;2023-07-20T11:31:39;30.06;34.15
62464;SHT31;48512;48.552;9.380;2023-07-20T11:34:09;30.00;33.12
62464;SHT31;48512;48.552;9.380;2023-07-20T11:36:38;29.84;33.56
62464;SHT31;48512;48.552;9.380;2023-07-20T11:39:06;29.65;34.93
62464;SHT31;48512;48.552;9.380;2023-07-20T11:41:33;29.39;34.79
62464;SHT31;48512;48.552;9.380;2023-07-20T11:43:59;28.94;35.46
62464;SHT31;48512;48.552;9.380;2023-07-20T11:46:30;28.84;35.37
62464;SHT31;48512;48.552;9.380;2023-07-20T11:48:59;29.10;34.90
62464;SHT31;48512;48.552;9.380;2023-07-20T11:51:28;29.35;33.89
62464;SHT31;48512;48.552;9.380;2023-07-20T11:53:55;30.01;34.01
62464;SHT31;48512;48.552;9.380;2023-07-20T11:56:23;30.56;33.75
62464;SHT31;48512;48.552;9.380;2023-07-20T11:58:49;30.80;32.71
62464;SHT31;48512;48.552;9.380;2023-07-20T12:01:17;30.76;32.89
62464;SHT31;48512;48.552;9.380;2023-07-20T12:03:43;31.13;33.04
62464;SHT31;48512;48.552;9.380;2023-07-20T12:06:10;31.62;32.62
62464;SHT31;48512;48.552;9.380;2023-07-20T12:08:41;31.06;31.70
62464;SHT31;48512;48.552;9.380;2023-07-20T12:11:08;30.49;31.71
62464;SHT31;48512;48.552;9.380;2023-07-20T12:13:44;30.48;33.88
62464;SHT31;48512;48.552;9.380;2023-07-20T12:16:16;29.93;33.10
62464;SHT31;48512;48.552;9.380;2023-07-20T12:18:43;29.56;33.13
62464;SHT31;48512;48.552;9.380;2023-07-20T12:21:10;30.56;32.45
62464;SHT31;48512;48.552;9.380;2023-07-20T12:23:40;30.97;33.12
62464;SHT31;48512;48.552;9.380;2023-07-20T12:26:08;30.83;31.16
62464;SHT31;48512;48.552;9.380;2023-07-20T12:28:39;30.78;32.78
62464;SHT31;48512;48.552;9.380;2023-07-20T12:31:09;31.27;30.54
62464;SHT31;48512;48.552;9.380;2023-07-20T12:33:37;31.23;30.55
62464;SHT31;48512;48.552;9.380;2023-07-20T12:36:04;31.09;31.51
62464;SHT31;48512;48.552;9.380;2023-07-20T12:38:30;31.78;31.53
62464;SHT31;48512;48.552;9.380;2023-07-20T12:40:57;32.46;30.62
62464;SHT31;48512;48.552;9.380;2023-07-20T12:43:24;31.61;29.85
62464;SHT31;48512;48.552;9.380;2023-07-20T12:45:50;31.60;30.34
62464;SHT31;48512;48.552;9.380;2023-07-20T12:48:16;32.10;30.60
62464;SHT31;48512;48.552;9.380;2023-07-20T12:50:43;31.77;30.58
62464;SHT31;48512;48.552;9.380;2023-07-20T12:53:09;32.43;29.77
62464;SHT31;48512;48.552;9.380;2023-07-20T12:55:35;32.17;29.40
62464;SHT31;48512;48.552;9.380;2023-07-20T12:58:01;32.16;29.54
62464;SHT31;48512;48.552;9.380;2023-07-20T13:00:28;31.02;30.74
62464;SHT31;48512;48.552;9.380;2023-07-20T13:02:54;31.48;30.79
62464;SHT31;48512;48.552;9.380;2023-07-20T13:05:20;31.99;31.21
62464;SHT31;48512;48.552;9.380;2023-07-20T13:07:46;31.99;31.79
62464;SHT31;48512;48.552;9.380;2023-07-20T13:10:13;32.41;30.36
62464;SHT31;48512;48.552;9.380;2023-07-20T13:12:39;32.60;29.46
62464;SHT31;48512;48.552;9.380;2023-07-20T13:15:06;32.63;28.76
62464;SHT31;48512;48.552;9.380;2023-07-20T13:17:34;32.54;29.78
62464;SHT31;48512;48.552;9.380;2023-07-20T13:20:00;33.19;28.54
62464;SHT31;48512;48.552;9.380;2023-07-20T13:22:26;33.29;28.74
62464;SHT31;48512;48.552;9.380;2023-07-20T13:24:53;33.21;29.93
62464;SHT31;48512;48.552;9.380;2023-07-20T13:27:19;33.12;29.22
62464;SHT31;48512;48.552;9.380;2023-07-20T13:29:45;32.52;29.49
62464;SHT31;48512;48.552;9.380;2023-07-20T13:32:15;32.16;30.47
62464;SHT31;48512;48.552;9.380;2023-07-20T13:34:41;33.33;29.93
62464;SHT31;48512;48.552;9.380;2023-07-20T13:37:08;32.57;29.95
62464;SHT31;48512;48.552;9.380;2023-07-20T13:39:35;33.43;29.86
62464;SHT31;48512;48.552;9.380;2023-07-20T13:42:01;33.84;29.52
62464;SHT31;48512;48.552;9.380;2023-07-20T13:44:34;34.08;28.61
62464;SHT31;48512;48.552;9.380;2023-07-20T13:47:01;34.24;28.28
62464;SHT31;48512;48.552;9.380;2023-07-20T13:49:27;33.94;27.78
62464;SHT31;48512;48.552;9.380;2023-07-20T13:51:53;34.28;28.59
62464;SHT31;48512;48.552;9.380;2023-07-20T13:54:20;34.51;28.47
62464;SHT31;48512;48.552;9.380;2023-07-20T13:56:46;34.48;27.30
62464;SHT31;48512;48.552;9.380;2023-07-20T13:59:12;33.26;28.52
62464;SHT31;48512;48.552;9.380;2023-07-20T14:01:38;32.81;28.86
62464;SHT31;48512;48.552;9.380;2023-07-20T14:04:05;31.95;29.36
62464;SHT31;48512;48.552;9.380;2023-07-20T14:06:32;33.08;31.13
62464;SHT31;48512;48.552;9.380;2023-07-20T14:08:59;33.26;31.09
62464;SHT31;48512;48.552;9.380;2023-07-20T14:11:26;33.09;29.65
62464;SHT31;48512;48.552;9.380;2023-07-20T14:13:52;33.78;29.80
62464;SHT31;48512;48.552;9.380;2023-07-20T14:16:22;33.94;27.95
62464;SHT31;48512;48.552;9.380;2023-07-20T14:18:49;33.49;28.18
62464;SHT31;48512;48.552;9.380;2023-07-20T14:21:16;32.68;29.29
62464;SHT31;48512;48.552;9.380;2023-07-20T14:23:51;33.08;28.91
62464;SHT31;48512;48.552;9.380;2023-07-20T14:26:18;33.08;29.12
62464;SHT31;48512;48.552;9.380;2023-07-20T14:28:44;32.84;29.50
62464;SHT31;48512;48.552;9.380;2023-07-20T14:31:10;33.63;28.12
62464;SHT31;48512;48.552;9.380;2023-07-20T14:33:37;33.87;28.18
62464;SHT31;48512;48.552;9.380;2023-07-20T14:36:03;32.99;29.42
62464;SHT31;48512;48.552;9.380;2023-07-20T14:38:31;33.29;29.79
62464;SHT31;48512;48.552;9.380;2023-07-20T14:40:57;33.92;29.65
62464;SHT31;48512;48.552;9.380;2023-07-20T14:43:23;33.96;28.69
62464;SHT31;48512;48.552;9.380;2023-07-20T14:45:49;33.50;28.52
62464;SHT31;48512;48.552;9.380;2023-07-20T14:48:15;33.92;29.20
62464;SHT31;48512;48.552;9.380;2023-07-20T14:50:42;33.43;29.21
62464;SHT31;48512;48.552;9.380;2023-07-20T14:53:14;33.42;29.60
62464;SHT31;48512;48.552;9.380;2023-07-20T14:55:41;33.30;29.82
62464;SHT31;48512;48.552;9.380;2023-07-20T14:58:08;32.22;30.37
62464;SHT31;48512;48.552;9.380;2023-07-20T15:00:34;31.62;31.02
62464;SHT31;48512;48.552;9.380;2023-07-20T15:03:01;32.27;31.33
62464;SHT31;48512;48.552;9.380;2023-07-20T15:05:27;32.46;30.86
62464;SHT31;48512;48.552;9.380;2023-07-20T15:07:54;32.97;30.03
62464;SHT31;48512;48.552;9.380;2023-07-20T15:10:20;33.07;29.62
62464;SHT31;48512;48.552;9.380;2023-07-20T15:12:46;32.84;30.07
62464;SHT31;48512;48.552;9.380;2023-07-20T15:15:14;33.17;29.69
62464;SHT31;48512;48.552;9.380;2023-07-20T15:17:42;32.06;30.95
62464;SHT31;48512;48.552;9.380;2023-07-20T15:20:11;32.13;31.28
62464;SHT31;48512;48.552;9.380;2023-07-20T15:22:37;31.92;30.80
62464;SHT31;48512;48.552;9.380;2023-07-20T15:25:06;32.57;29.49
62464;SHT31;48512;48.552;9.380;2023-07-20T15:27:33;32.44;29.84
62464;SHT31;48512;48.552;9.380;2023-07-20T15:29:59;32.09;30.66
62464;SHT31;48512;48.552;9.380;2023-07-20T15:32:25;32.44;30.18
62464;SHT31;48512;48.552;9.380;2023-07-20T15:34:52;32.81;30.16
62464;SHT31;48512;48.552;9.380;2023-07-20T15:37:18;32.95;29.71
62464;SHT31;48512;48.552;9.380;2023-07-20T15:39:48;32.77;30.13
62464;SHT31;48512;48.552;9.380;2023-07-20T15:42:15;32.40;30.61
62464;SHT31;48512;48.552;9.380;2023-07-20T15:44:41;32.20;31.23
62464;SHT31;48512;48.552;9.380;2023-07-20T15:47:07;31.55;30.54
62464;SHT31;48512;48.552;9.380;2023-07-20T15:49:33;31.40;30.94
62464;SHT31;48512;48.552;9.380;2023-07-20T15:51:59;31.07;31.91
62464;SHT31;48512;48.552;9.380;2023-07-20T15:54:26;30.96;31.91
62464;SHT31;48512;48.552;9.380;2023-07-20T15:56:52;30.94;32.79
62464;SHT31;48512;48.552;9.380;2023-07-20T15:59:19;30.71;33.08
62464;SHT31;48512;48.552;9.380;2023-07-20T16:01:45;31.24;31.61